Data for 03/13/2007

Time Sea-Level Adjusted Pressure Absolute Pressure Temperature Relative Humidity Dew Point   
(mb) (inHg) (mb) (inHg) (C) (F) (%) (C) (F)
00:05 1017 30.03 846 24.98 6.3 43.3 87 4.2 39.6
00:10 1017 30.03 846 24.98 6.2 43.1 88 4.3 39.8
00:15 1017 30.03 846 24.98 6.3 43.3 86 4 39.3
00:20 1017 30.03 846 24.98 6.8 44.3 83 4.2 39.6
00:25 1017 30.03 846 24.98 7.3 45.2 75 3.3 37.9
00:30 1017 30.03 846 24.98 8 46.4 70 2.9 37.2
00:35 1017 30.03 846 24.98 8.6 47.5 66 2.8 37
00:40 1017 30.03 846 24.98 8.9 48.1 68 3.4 38.1
00:45 1017 30.03 846 24.98 8.1 46.5 73 3.5 38.2
00:50 1017 30.03 846 24.98 7.6 45.8 72 2.9 37.1
00:55 1017 30.03 846 24.98 7.9 46.1 72 3 37.5
01:00 1017 30.03 846 24.98 7.7 45.9 76 3.8 38.8
01:05 1017 30.03 846 24.98 7.3 45.2 79 4 39.1
01:10 1016 30 846 24.98 7.1 44.9 80 3.9 39
01:15 1016 30 846 24.98 6.5 43.7 84 4 39.2
01:20 1016 30 846 24.98 6.6 43.8 75 2.5 36.5
01:25 1016 30 846 24.98 7 44.6 79 3.6 38.5
01:30 1017 30.03 846 24.98 6.4 43.4 79 3.1 37.5
01:35 1017 30.03 846 24.98 6.3 43.4 80 3.2 37.7
01:40 1016 30 846 24.98 6.2 43.2 82 3.3 37.9
01:45 1016 30 846 24.98 6.5 43.7 80 3.2 37.8
01:50 1016 30 846 24.98 6.6 43.9 82 3.8 38.9
01:55 1016 30 845 24.95 6.1 43.1 82 3.3 38
02:00 1016 30 845 24.95 6.5 43.6 82 3.7 38.6
02:05 1016 30 845 24.95 6 42.8 85 3.7 38.6
02:10 1016 30 845 24.95 5.4 41.8 85 3.1 37.7
02:15 1016 30 845 24.95 6.2 43.1 77 2.5 36.5
02:20 1016 30 845 24.95 7.2 45 74 2.9 37.2
02:25 1016 30 845 24.95 6.7 44 76 2.8 37
02:30 1016 30 845 24.95 7.2 44.9 70 2.1 35.8
02:35 1016 30 845 24.95 7.5 45.6 70 2.4 36.3
02:40 1016 30 845 24.95 7.1 44.8 71 2.3 36.1
02:45 1016 30 845 24.95 7.1 44.8 67 1.4 34.6
02:50 1016 30 845 24.95 8.1 46.5 61 1 33.8
02:55 1016 30 845 24.95 8.3 47 62 1.5 34.6
03:00 1016 30 845 24.95 8.2 46.7 61 1.1 34
03:05 1016 30 845 24.95 8.7 47.7 57 0.8 33.5
03:10 1016 30 845 24.95 9.3 48.7 56 1 33.8
03:15 1016 30 845 24.95 9 48.2 58 1.3 34.3
03:20 1016 30 845 24.95 8.4 47.1 61 1.4 34.6
03:25 1016 30 845 24.95 7.3 45.1 66 1.4 34.5
03:30 1016 30 845 24.95 6.8 44.2 67 1.2 34.1
03:35 1015 29.97 845 24.95 7.1 44.8 64 0.8 33.5
03:40 1015 29.97 845 24.95 7.5 45.5 63 0.9 33.6
03:45 1015 29.97 845 24.95 7.3 45.1 67 1.6 34.9
03:50 1015 29.97 844 24.92 6.4 43.5 69 1.2 34.1
03:55 1015 29.97 844 24.92 5.9 42.6 74 1.6 34.9
04:00 1015 29.97 844 24.92 5.2 41.3 76 1.2 34.2
04:05 1015 29.97 844 24.92 5.4 41.8 69 0.3 32.5
04:10 1015 29.97 844 24.92 6.7 44 65 0.6 33.1
04:15 1015 29.97 844 24.92 6.9 44.4 66 1 33.7
04:20 1015 29.97 844 24.92 6.9 44.4 65 0.8 33.5
04:25 1015 29.97 844 24.92 7.1 44.7 67 1.3 34.4
04:30 1015 29.97 844 24.92 6.4 43.4 69 1.1 33.9
04:35 1015 29.97 844 24.92 5.9 42.6 71 1 33.8
04:40 1015 29.97 844 24.92 6.3 43.3 67 0.6 33.1
04:45 1015 29.97 844 24.92 6.2 43.1 69 1 33.8
04:50 1015 29.97 844 24.92 6 42.8 69 0.8 33.4
04:55 1015 29.97 844 24.92 6.5 43.6 66 0.7 33.2
05:00 1015 29.97 844 24.92 7 44.5 64 0.6 33.1
05:05 1015 29.97 844 24.92 7.6 45.6 61 0.6 33.1
05:10 1015 29.97 844 24.92 8.1 46.6 59 0.6 33.1
05:15 1015 29.97 844 24.92 8.1 46.5 60 0.8 33.4
05:20 1015 29.97 844 24.92 8.1 46.6 59 0.6 33
05:25 1015 29.97 844 24.92 7.8 46 63 1.2 34.1
05:30 1015 29.97 844 24.92 7.5 45.5 61 0.5 32.9
05:35 1015 29.97 844 24.92 8 46.4 60 0.6 33.1
05:40 1015 29.97 844 24.92 7.8 46.1 60 0.5 33
05:45 1015 29.97 844 24.92 8 46.5 59 0.6 33.1
05:50 1015 29.97 844 24.92 8.2 46.7 59 0.6 33.1
05:55 1015 29.97 844 24.92 8.2 46.7 58 0.4 32.8
06:00 1015 29.97 844 24.92 8.2 46.7 58 0.5 32.8
06:05 1015 29.97 844 24.92 6.9 44.5 66 1 33.9
06:10 1015 29.97 844 24.92 5.8 42.5 66 0 32
06:15 1015 29.97 844 24.92 6.8 44.2 61 -0.1 31.9
06:20 1015 29.97 844 24.92 7.4 45.4 59 -0.1 31.8
06:25 1015 29.97 844 24.92 7.8 46 60 0.5 33
06:30 1015 29.97 844 24.92 7.3 45.1 62 0.5 32.9
06:35 1014 29.94 844 24.92 7.2 45 62 0.4 32.7
06:40 1015 29.97 844 24.92 6.4 43.5 66 0.5 33
06:45 1015 29.97 844 24.92 5.7 42.3 68 0.3 32.5
06:50 1015 29.97 844 24.92 5.6 42.1 68 0.2 32.4
06:55 1015 29.97 844 24.92 5.1 41.2 72 0.4 32.7
07:00 1015 29.97 844 24.92 5.6 42 66 -0.3 31.5
07:05 1015 29.97 844 24.92 6.6 43.9 61 -0.4 31.3
07:10 1015 29.97 844 24.92 6.8 44.3 63 0.2 32.4
07:15 1015 29.97 844 24.92 6.5 43.6 62 -0.2 31.6
07:20 1015 29.97 844 24.92 6.8 44.3 60 -0.3 31.5
07:25 1015 29.97 844 24.92 7.3 45.1 54 -1.3 29.6
07:30 1015 29.97 844 24.92 8.4 47.1 55 -0.2 31.6
07:35 1015 29.97 844 24.92 7.9 46.2 60 0.5 33
07:40 1015 29.97 844 24.92 6.8 44.2 63 0.2 32.4
07:45 1015 29.97 844 24.92 6.8 44.2 62 0 32.1
07:50 1015 29.97 844 24.92 6.3 43.3 67 0.6 33
07:55 1015 29.97 844 24.92 5.5 42 69 0.3 32.6
08:00 1015 29.97 844 24.92 5.1 41.2 70 0.1 32.1
08:05 1015 29.97 844 24.92 4.9 40.9 70 -0.1 31.8
08:10 1014 29.94 844 24.92 5.2 41.4 67 -0.3 31.5
08:15 1014 29.94 844 24.92 6.2 43.2 61 -0.7 30.7
08:20 1014 29.94 844 24.92 5.6 42.2 70 0.5 33
08:25 1014 29.94 844 24.92 5.3 41.6 67 -0.3 31.5
08:30 1014 29.94 844 24.92 6.3 43.3 61 -0.6 30.9
08:35 1014 29.94 844 24.92 7.6 45.8 57 -0.4 31.3
08:40 1014 29.94 844 24.92 7.4 45.3 60 0 32.1
08:45 1014 29.94 844 24.92 7 44.6 62 0.1 32.2
08:50 1014 29.94 844 24.92 6.4 43.5 64 0.1 32.3
08:55 1014 29.94 844 24.92 5.7 42.3 67 0.2 32.3
09:00 1014 29.94 844 24.92 6 42.7 65 -0 32
09:05 1014 29.94 844 24.92 6.5 43.6 63 -0 32
09:10 1014 29.94 843 24.89 6.5 43.8 63 -0 32
09:15 1014 29.94 843 24.89 7 44.5 61 -0 31.9
09:20 1014 29.94 843 24.89 7.5 45.5 60 0.2 32.3
09:25 1014 29.94 843 24.89 7.7 45.9 61 0.7 33.2
09:30 1014 29.94 843 24.89 8 46.3 58 0.3 32.6
09:35 1014 29.94 843 24.89 8.3 47 57 0.4 32.7
09:40 1014 29.94 843 24.89 8.9 48 57 0.9 33.6
09:45 1014 29.94 843 24.89 9 48.2 58 1.2 34.2
09:50 1014 29.94 843 24.89 8.7 47.7 57 0.8 33.4
09:55 1014 29.94 843 24.89 8.7 47.7 57 0.8 33.4
10:00 1014 29.94 843 24.89 9 48.3 55 0.6 33.1
10:05 1014 29.94 843 24.89 9 48.2 56 0.7 33.2
10:10 1014 29.94 843 24.89 9.1 48.3 57 0.9 33.7
10:15 1014 29.94 843 24.89 9.7 49.4 54 0.8 33.4
10:20 1014 29.94 843 24.89 10.1 50.1 52 0.7 33.3
10:25 1014 29.94 843 24.89 10.6 51 49 0.3 32.5
10:30 1014 29.94 843 24.89 10.9 51.7 50 1 33.7
10:35 1014 29.94 843 24.89 11 51.7 48 0.3 32.5
10:40 1014 29.94 843 24.89 11.6 52.9 42 -0.8 30.6
10:45 1014 29.94 843 24.89 12.4 54.4 39 -1 30.3
10:50 1014 29.94 843 24.89 12.8 55 36 -1.8 28.8
10:55 1014 29.94 843 24.89 12.9 55.1 34 -2.5 27.5
11:00 1014 29.94 843 24.89 12.8 55 37 -1.6 29.1
11:05 1014 29.94 843 24.89 12.8 55.1 38 -1.1 30
11:10 1014 29.94 843 24.89 12.9 55.1 34 -2.5 27.4
11:15 1014 29.94 843 24.89 13.3 55.9 34 -2.1 28.2
11:20 1014 29.94 843 24.89 13.1 55.6 35 -2.1 28.2
11:25 1014 29.94 843 24.89 13.1 55.6 34 -2.4 27.6
11:30 1014 29.94 843 24.89 13.4 56.2 33 -2.3 27.8
11:35 1014 29.94 843 24.89 13.7 56.7 31 -3.1 26.5
11:40 1014 29.94 843 24.89 14.1 57.3 32 -2.2 28
11:45 1014 29.94 843 24.89 14 57.2 31 -2.8 27
11:50 1014 29.94 843 24.89 13.9 57 30 -3.3 26
11:55 1014 29.94 843 24.89 13.9 56.9 31 -2.7 27.1
12:00 1013 29.91 843 24.89 14.3 57.7 30 -2.9 26.7
12:05 1014 29.94 843 24.89 14.2 57.6 34 -1.4 29.5
12:10 1013 29.91 843 24.89 13.1 55.5 43 0.8 33.5
12:15 1014 29.94 843 24.89 11.7 53.1 48 1.1 33.9
12:20 1014 29.94 843 24.89 10.8 51.5 52 1.5 34.6
12:25 1014 29.94 843 24.89 10.4 50.8 52 1.1 33.9
12:30 1014 29.94 843 24.89 10.3 50.6 52 0.9 33.5
12:35 1014 29.94 843 24.89 10.3 50.5 52 1 33.8
12:40 1014 29.94 843 24.89 10.1 50.1 54 1.3 34.4
12:45 1014 29.94 843 24.89 10 50 55 1.4 34.5
12:50 1014 29.94 843 24.89 10 49.9 56 1.5 34.8
12:55 1014 29.94 843 24.89 9.8 49.7 56 1.4 34.5
13:00 1014 29.94 843 24.89 9.8 49.6 56 1.4 34.5
13:05 1014 29.94 843 24.89 9.9 49.8 55 1.4 34.5
13:10 1014 29.94 843 24.89 10 50.1 55 1.4 34.5
13:15 1014 29.94 843 24.89 10.1 50.2 54 1.2 34.2
13:20 1014 29.94 843 24.89 10.2 50.3 53 1.1 34
13:25 1014 29.94 843 24.89 10.2 50.3 53 1.1 34
13:30 1014 29.94 843 24.89 10.1 50.2 54 1.3 34.3
13:35 1014 29.94 843 24.89 10.3 50.6 53 1.2 34.1
13:40 1014 29.94 843 24.89 10.7 51.2 51 1 33.9
13:45 1014 29.94 843 24.89 10.9 51.6 50 1.1 33.9
13:50 1014 29.94 843 24.89 11 51.8 50 1 33.9
13:55 1014 29.94 843 24.89 10.9 51.6 49 0.6 33
14:00 1014 29.94 843 24.89 11.5 52.8 46 0.4 32.7
14:05 1014 29.94 843 24.89 11.4 52.6 53 2.3 36.1
14:10 1014 29.94 843 24.89 10.5 50.9 54 1.6 34.9
14:15 1014 29.94 843 24.89 10.6 51 53 1.5 34.6
14:20 1014 29.94 843 24.89 10.5 50.9 52 1.2 34.2
14:25 1014 29.94 843 24.89 10.9 51.6 50 1 33.8
14:30 1014 29.94 843 24.89 10.9 51.7 49 0.8 33.5
14:35 1014 29.94 843 24.89 10.7 51.3 50 0.7 33.2
14:40 1014 29.94 843 24.89 11.2 52.1 48 0.7 33.3
14:45 1013 29.91 843 24.89 12.1 53.8 43 -0.2 31.7
14:50 1013 29.91 843 24.89 12.5 54.4 44 0.6 33
14:55 1013 29.91 842 24.86 12.7 54.8 43 0.5 32.9
15:00 1013 29.91 842 24.86 12.7 54.8 40 -0.4 31.2
15:05 1013 29.91 842 24.86 12.3 54.1 40 -0.7 30.8
15:10 1013 29.91 842 24.86 12.1 53.9 41 -0.5 31
15:15 1013 29.91 842 24.86 12.1 53.8 40 -1 30.2
15:20 1013 29.91 842 24.86 12 53.5 41 -0.9 30.3
15:25 1013 29.91 842 24.86 12.1 53.8 40 -0.9 30.4
15:30 1013 29.91 842 24.86 12.3 54.2 41 -0.6 30.8
15:35 1013 29.91 842 24.86 12.7 54.9 39 -1 30.2
15:40 1013 29.91 842 24.86 12.8 55 39 -0.9 30.4
15:45 1013 29.91 842 24.86 12.8 55 37 -1.4 29.5
15:50 1013 29.91 842 24.86 12.7 54.8 37 -1.6 29.2
15:55 1013 29.91 842 24.86 12.6 54.6 38 -1.5 29.3
16:00 1013 29.91 842 24.86 12.5 54.5 38 -1.5 29.4
16:05 1013 29.91 842 24.86 12.8 55 35 -2.2 28.1
16:10 1013 29.91 842 24.86 12.9 55.1 35 -2.3 27.8
16:15 1013 29.91 842 24.86 13.1 55.5 35 -2.2 28.1
16:20 1013 29.91 842 24.86 13.3 55.9 34 -2.2 28
16:25 1013 29.91 842 24.86 13.7 56.6 32 -2.5 27.6
16:30 1013 29.91 842 24.86 13.8 56.9 33 -2.1 28.3
16:35 1013 29.91 842 24.86 14 57.1 31 -2.9 26.9
16:40 1013 29.91 842 24.86 13.7 56.7 31 -3.2 26.3
16:45 1013 29.91 842 24.86 13.6 56.6 31 -3.1 26.5
16:50 1013 29.91 842 24.86 13.7 56.6 32 -2.6 27.3
16:55 1013 29.91 842 24.86 13.7 56.7 32 -2.5 27.4
17:00 1013 29.91 842 24.86 13.4 56.1 32 -3.1 26.5
17:05 1013 29.91 842 24.86 13.3 56 31 -3.3 26.1
17:10 1013 29.91 842 24.86 13.4 56.1 31 -3.2 26.2
17:15 1013 29.91 842 24.86 13.3 55.9 32 -3.2 26.3
17:20 1013 29.91 842 24.86 13.6 56.4 31 -3 26.6
17:25 1013 29.91 842 24.86 13.3 56 31 -3.2 26.2
17:30 1013 29.91 842 24.86 13.1 55.5 32 -3 26.5
17:35 1013 29.91 842 24.86 13.1 55.6 32 -3.2 26.3
17:40 1013 29.91 842 24.86 13.2 55.7 31 -3.4 25.9
17:45 1013 29.91 842 24.86 13.2 55.7 31 -3.6 25.6
17:50 1013 29.91 842 24.86 13.2 55.7 31 -3.4 25.9
17:55 1013 29.91 842 24.86 13.2 55.7 31 -3.4 25.9
18:00 1013 29.91 842 24.86 13.2 55.7 31 -3.5 25.7
18:05 1013 29.91 842 24.86 12.9 55.1 32 -3.5 25.7
18:10 1013 29.91 842 24.86 12.8 55 31 -4 24.8
18:15 1013 29.91 842 24.86 12.5 54.4 30 -4.4 24
18:20 1013 29.91 842 24.86 12.4 54.3 31 -4.4 24.2
18:25 1013 29.91 842 24.86 12.3 54.1 29 -5.3 22.5
18:30 1013 29.91 842 24.86 12.1 53.8 29 -5.2 22.6
18:35 1013 29.91 842 24.86 11.9 53.5 31 -4.8 23.3
18:40 1013 29.91 842 24.86 11.9 53.4 29 -5.5 22.1
18:45 1013 29.91 842 24.86 11.9 53.4 28 -6.2 20.9
18:50 1013 29.91 842 24.86 11.8 53.2 27 -6.4 20.4
18:55 1013 29.91 842 24.86 11.5 52.7 28 -6.6 20.2
19:00 1013 29.91 843 24.89 11.4 52.5 28 -6.6 20.2
19:05 1013 29.91 843 24.89 11.2 52.1 28 -6.6 20.2
19:10 1014 29.94 843 24.89 11 51.9 29 -6.4 20.5
19:15 1014 29.94 843 24.89 10.9 51.7 29 -6.2 20.8
19:20 1014 29.94 843 24.89 10.9 51.5 30 -6.2 20.9
19:25 1014 29.94 843 24.89 10.7 51.3 30 -6.1 21.1
19:30 1014 29.94 843 24.89 10.7 51.3 30 -5.9 21.3
19:35 1014 29.94 843 24.89 10.7 51.2 33 -4.9 23.1
19:40 1014 29.94 843 24.89 9.7 49.5 38 -3.8 25.2
19:45 1014 29.94 843 24.89 9.1 48.5 37 -4.7 23.5
19:50 1014 29.94 843 24.89 9.5 49 34 -5.6 21.9
19:55 1014 29.94 844 24.92 9.7 49.5 34 -5.5 22.2
20:00 1015 29.97 844 24.92 9.9 49.7 34 -5.4 22.2
20:05 1015 29.97 844 24.92 9.8 49.6 34 -5.3 22.4
20:10 1015 29.97 844 24.92 9.5 49.1 32 -6.2 20.8
20:15 1015 29.97 844 24.92 9.2 48.6 33 -6.1 21
20:20 1015 29.97 844 24.92 9.1 48.4 33 -6.4 20.5
20:25 1015 29.97 844 24.92 8.9 48 34 -6.3 20.7
20:30 1015 29.97 844 24.92 8.9 47.9 34 -6.3 20.7
20:35 1015 29.97 845 24.95 8.8 47.9 34 -6.1 21.1
20:40 1015 29.97 845 24.95 8.7 47.7 35 -5.9 21.5
20:45 1015 29.97 845 24.95 8.6 47.5 35 -6 21.2
20:50 1016 30 845 24.95 8.5 47.4 36 -5.9 21.5
20:55 1015 29.97 845 24.95 8.5 47.4 35 -5.9 21.3
21:00 1015 29.97 845 24.95 8.4 47.2 37 -5.5 22.1
21:05 1016 30 845 24.95 8.4 47.2 36 -5.7 21.7
21:10 1016 30 845 24.95 8.3 46.9 37 -5.5 22.1
21:15 1016 30 845 24.95 8.3 47 37 -5.5 22
21:20 1016 30 845 24.95 8.2 46.7 37 -5.7 21.7
21:25 1016 30 845 24.95 8.2 46.7 36 -6 21.2
21:30 1016 30 845 24.95 8.2 46.8 36 -6.1 21
21:35 1016 30 845 24.95 8.2 46.8 36 -6 21.2
21:40 1016 30 845 24.95 8.1 46.5 37 -5.9 21.5
21:45 1016 30 845 24.95 7.9 46.2 37 -5.8 21.6
21:50 1016 30 845 24.95 7.8 46.1 39 -5.4 22.3
21:55 1016 30 845 24.95 7.8 46 38 -5.5 22.1
22:00 1016 30 845 24.95 8 46.4 37 -5.9 21.4
22:05 1016 30 845 24.95 8.1 46.6 37 -5.8 21.6
22:10 1016 30 845 24.95 8.1 46.6 37 -5.6 21.9
22:15 1016 30 845 24.95 8.1 46.5 36 -6 21.2
22:20 1016 30 845 24.95 8 46.3 35 -6.4 20.5
22:25 1016 30 845 24.95 8.1 46.5 34 -6.8 19.7
22:30 1016 30 845 24.95 8.1 46.6 34 -6.6 20.1
22:35 1016 30 845 24.95 8.1 46.5 34 -6.9 19.7
22:40 1016 30 845 24.95 8 46.3 34 -6.8 19.7
22:45 1016 30 845 24.95 7.4 45.2 43 -4.3 24.2
22:50 1016 30 845 24.95 6.2 43.2 46 -4.5 23.9
22:55 1015 29.97 845 24.95 6.3 43.3 44 -5.2 22.6
23:00 1015 29.97 845 24.95 6.3 43.3 46 -4.6 23.8
23:05 1015 29.97 845 24.95 6.1 42.9 45 -5 22.9
23:10 1015 29.97 845 24.95 6.1 42.9 47 -4.3 24.3
23:15 1015 29.97 844 24.92 5.5 41.8 49 -4.3 24.2
23:20 1015 29.97 845 24.95 5.2 41.4 50 -4.3 24.2
23:25 1015 29.97 845 24.95 5.2 41.4 50 -4.4 24.1
23:30 1015 29.97 844 24.92 5.3 41.5 49 -4.6 23.7
23:35 1015 29.97 844 24.92 5.4 41.7 48 -4.8 23.3
23:40 1015 29.97 844 24.92 5.5 41.9 47 -4.9 23.1
23:45 1015 29.97 845 24.95 5.6 42.1 45 -5.5 22.1
23:50 1015 29.97 844 24.92 5.9 42.6 45 -5.2 22.6
23:55 1015 29.97 845 24.95 5.7 42.3 47 -4.8 23.4
24:00 1015 29.97 845 24.95 5.5 41.9 49 -4.4 24.1